createdAt,value
2019-05-20T00:00:01.588Z,98821.46
2019-05-20T00:02:51.070Z,98818.98
2019-05-20T00:05:18.777Z,98818.98
2019-05-20T00:07:46.575Z,98818.45
2019-05-20T00:10:14.054Z,98813.61
2019-05-20T00:12:43.379Z,98813.61
2019-05-20T00:18:16.440Z,98824.28
2019-05-20T00:21:02.788Z,98820.28
2019-05-20T00:23:30.422Z,98820.28
2019-05-20T00:26:16.790Z,98828.39
2019-05-20T00:28:46.107Z,98828.39
2019-05-20T00:31:13.768Z,98823.05
2019-05-20T00:34:00.035Z,98821.87
2019-05-20T00:36:46.399Z,98816.53
2019-05-20T00:39:20.163Z,98816.53
2019-05-20T00:41:49.480Z,98819.02
2019-05-20T00:44:36.171Z,98818.45
2019-05-20T00:47:03.725Z,98818.45
2019-05-20T00:49:31.296Z,98814.20
2019-05-20T00:52:17.928Z,98804.16
2019-05-20T00:55:04.360Z,98795.12
2019-05-20T00:57:31.976Z,98795.12
2019-05-20T01:00:18.412Z,98795.44
2019-05-20T01:02:56.439Z,98794.11
2019-05-20T01:05:15.444Z,98794.78
2019-05-20T01:08:01.819Z,98794.45
2019-05-20T01:10:29.503Z,98794.45
2019-05-20T01:13:16.141Z,98806.45
2019-05-20T01:15:43.762Z,98806.45
2019-05-20T01:18:30.352Z,98814.11
2019-05-20T01:21:04.997Z,98825.84
2019-05-20T01:23:32.655Z,98825.84
2019-05-20T01:26:18.969Z,98823.20
2019-05-20T01:28:46.725Z,98823.20
2019-05-20T01:31:33.370Z,98821.11
2019-05-20T01:34:00.942Z,98821.11
2019-05-20T01:36:28.580Z,98831.50
2019-05-20T01:38:56.074Z,98831.50
2019-05-20T01:41:42.820Z,98843.97
2019-05-20T01:44:29.276Z,98840.31
2019-05-20T01:46:56.873Z,98840.31
2019-05-20T01:49:43.231Z,98836.98
2019-05-20T01:52:10.846Z,98836.98
2019-05-20T01:54:40.139Z,98832.98
2019-05-20T01:57:43.226Z,98832.38
2019-05-20T01:59:58.408Z,98832.38
2019-05-20T02:02:26.047Z,98843.37
2019-05-20T02:04:53.739Z,98839.38
2019-05-20T02:07:52.047Z,98839.52
2019-05-20T02:10:09.436Z,98838.36
2019-05-20T02:12:37.092Z,98837.66
2019-05-20T02:17:43.468Z,98845.98
2019-05-20T02:20:29.822Z,98833.66
2019-05-20T02:23:16.528Z,98828.84
2019-05-20T02:25:46.760Z,98828.84
2019-05-20T02:28:34.104Z,98817.84
2019-05-20T02:31:01.883Z,98817.84
2019-05-20T02:33:52.242Z,98819.66
2019-05-20T02:36:17.790Z,98819.66
2019-05-20T02:38:45.251Z,98834.17
2019-05-20T02:41:13.335Z,98839.98
2019-05-20T02:43:59.738Z,98834.97
2019-05-20T02:46:46.434Z,98838.44
2019-05-20T02:49:14.094Z,98838.44
2019-05-20T02:52:00.432Z,98836.06
2019-05-20T02:54:28.055Z,98840.34
2019-05-20T02:57:14.519Z,98839.02
2019-05-20T03:00:00.885Z,98844.40
2019-05-20T03:02:28.622Z,98844.40
2019-05-20T03:05:15.030Z,98846.09
2019-05-20T03:08:01.474Z,98845.55
2019-05-20T03:10:47.821Z,98848.23
2019-05-20T03:13:34.269Z,98848.23
2019-05-20T03:16:02.002Z,98842.11
2019-05-20T03:18:29.667Z,98844.31
2019-05-20T03:21:16.056Z,98846.03
2019-05-20T03:23:43.536Z,98847.39
2019-05-20T03:26:11.284Z,98843.30
2019-05-20T03:28:38.806Z,98835.17
2019-05-20T03:31:25.211Z,98829.23
2019-05-20T03:33:52.813Z,98838.62
2019-05-20T03:36:22.091Z,98841.06
2019-05-20T03:39:08.764Z,98842.27
2019-05-20T03:41:55.109Z,98831.50
2019-05-20T03:44:22.878Z,98831.50
2019-05-20T03:47:09.553Z,98839.96
2019-05-20T03:49:56.001Z,98846.86
2019-05-20T03:52:23.513Z,98846.86
2019-05-20T03:55:09.946Z,98850.63
2019-05-20T03:57:37.728Z,98854.99
2019-05-20T04:00:25.730Z,98860.52
2019-05-20T04:03:12.493Z,98867.58
2019-05-20T04:06:00.181Z,98867.58
2019-05-20T04:08:29.060Z,98863.42
2019-05-20T04:10:56.843Z,98862.77
2019-05-20T04:13:24.503Z,98874.13
2019-05-20T04:16:10.927Z,98874.33
2019-05-20T04:18:45.822Z,98874.33
2019-05-20T04:21:13.493Z,98870.83
2019-05-20T04:23:41.083Z,98863.84
2019-05-20T04:26:10.444Z,98863.84
2019-05-20T04:31:43.087Z,98864.17
2019-05-20T04:34:10.601Z,98864.17
2019-05-20T04:36:38.274Z,98868.02
2019-05-20T04:39:24.631Z,98874.05
2019-05-20T04:41:52.224Z,98864.84
2019-05-20T04:44:19.701Z,98869.34
2019-05-20T04:47:06.100Z,98869.34
2019-05-20T04:49:34.092Z,98871.70
2019-05-20T04:52:01.634Z,98866.02
2019-05-20T04:54:29.526Z,98871.52
2019-05-20T04:56:57.126Z,98884.89
2019-05-20T04:59:24.694Z,98897.77
2019-05-20T05:01:53.615Z,98899.44
2019-05-20T05:04:21.183Z,98904.28
2019-05-20T05:06:48.783Z,98903.46
2019-05-20T05:09:20.098Z,98901.97
2019-05-20T05:11:47.689Z,98889.75
2019-05-20T05:14:15.215Z,98896.61
2019-05-20T05:16:42.811Z,98893.27
2019-05-20T05:19:10.323Z,98893.27
2019-05-20T05:21:38.047Z,98890.59
2019-05-20T05:24:05.544Z,98889.26
2019-05-20T05:26:33.001Z,98890.92
2019-05-20T05:29:00.805Z,98887.09
2019-05-20T05:31:28.332Z,98893.13
2019-05-20T05:33:55.884Z,98893.13
2019-05-20T05:36:23.758Z,98894.48
2019-05-20T05:38:52.539Z,98891.62
2019-05-20T05:41:20.147Z,98889.97
2019-05-20T05:43:47.981Z,98895.16
2019-05-20T05:46:17.624Z,98892.31
2019-05-20T05:48:45.173Z,98899.00
2019-05-20T05:51:12.956Z,98899.00
2019-05-20T05:53:42.601Z,98890.15
2019-05-20T05:56:10.493Z,98890.15
2019-05-20T05:58:38.391Z,98896.66
2019-05-20T06:01:05.908Z,98894.32
2019-05-20T06:03:33.505Z,98894.32
2019-05-20T06:06:12.285Z,98899.34
2019-05-20T06:08:34.422Z,98901.84
2019-05-20T06:11:02.171Z,98889.97
2019-05-20T06:13:30.009Z,98897.31
2019-05-20T06:15:59.545Z,98897.31
2019-05-20T06:18:27.434Z,98895.66
2019-05-20T06:20:55.279Z,98895.66
2019-05-20T06:23:22.729Z,98900.67
2019-05-20T06:25:50.269Z,98900.67
2019-05-20T06:28:19.154Z,98907.20
2019-05-20T06:30:46.635Z,98910.03
2019-05-20T06:33:14.183Z,98918.58
2019-05-20T06:35:42.011Z,98921.27
2019-05-20T06:38:16.953Z,98917.91
2019-05-20T06:40:44.497Z,98917.06
2019-05-20T06:43:12.395Z,98917.06
2019-05-20T06:45:45.018Z,98913.05
2019-05-20T06:48:12.541Z,98909.86
2019-05-20T06:50:44.273Z,98919.40
2019-05-20T06:53:13.829Z,98925.75
2019-05-20T06:55:41.061Z,98925.75
2019-05-20T06:58:08.957Z,98919.73
2019-05-20T07:00:36.621Z,98919.91
2019-05-20T07:03:04.118Z,98924.43
2019-05-20T07:05:31.996Z,98924.43
2019-05-20T07:08:01.314Z,98924.23
2019-05-20T07:10:28.797Z,98921.73
2019-05-20T07:12:56.525Z,98921.73
2019-05-20T07:15:30.146Z,98923.21
2019-05-20T07:17:58.166Z,98923.21
2019-05-20T07:20:25.977Z,98932.08
2019-05-20T07:22:56.150Z,98931.06
2019-05-20T07:25:22.763Z,98931.06
2019-05-20T07:27:53.151Z,98930.39
2019-05-20T07:30:20.688Z,98932.55
2019-05-20T07:32:48.307Z,98935.06
2019-05-20T07:35:30.458Z,98935.06
2019-05-20T07:37:51.529Z,98934.71
2019-05-20T07:40:21.029Z,98934.71
2019-05-20T07:42:51.367Z,98932.68
2019-05-20T07:45:21.866Z,98935.04
2019-05-20T07:47:52.011Z,98938.53
2019-05-20T07:50:19.817Z,98934.19
2019-05-20T07:52:48.379Z,98937.00
2019-05-20T07:55:15.925Z,98926.97
2019-05-20T07:57:43.727Z,98929.45
2019-05-20T08:00:11.282Z,98933.63
2019-05-20T08:02:38.920Z,98933.63
2019-05-20T08:05:09.748Z,98935.43
2019-05-20T08:07:51.206Z,98935.43
2019-05-20T08:10:08.934Z,98933.92
2019-05-20T08:12:36.775Z,98929.55
2019-05-20T08:15:04.361Z,98924.66
2019-05-20T08:17:32.008Z,98922.43
2019-05-20T08:19:59.897Z,98927.09
2019-05-20T08:22:29.058Z,98927.84
2019-05-20T08:24:56.623Z,98927.84
2019-05-20T08:27:27.609Z,98930.62
2019-05-20T08:29:55.182Z,98930.62
2019-05-20T08:32:25.278Z,98926.55
2019-05-20T08:34:53.135Z,98926.33
2019-05-20T08:37:20.727Z,98933.03
2019-05-20T08:39:48.315Z,98932.48
2019-05-20T08:42:16.151Z,98929.79
2019-05-20T08:44:43.692Z,98932.58
2019-05-20T08:47:11.234Z,98936.11
2019-05-20T08:49:39.127Z,98941.22
2019-05-20T08:52:09.162Z,98935.45
2019-05-20T08:54:41.615Z,98935.45
2019-05-20T08:59:43.502Z,98938.67
2019-05-20T09:02:11.038Z,98938.67
2019-05-20T09:04:38.654Z,98940.48
2019-05-20T09:07:10.658Z,98940.43
2019-05-20T09:09:42.891Z,98941.08
2019-05-20T09:12:10.516Z,98948.64
2019-05-20T09:14:45.157Z,98942.39
2019-05-20T09:17:12.295Z,98946.25
2019-05-20T09:19:39.910Z,98945.38
2019-05-20T09:22:13.791Z,98949.75
2019-05-20T09:24:43.892Z,98957.17
2019-05-20T09:27:11.912Z,98957.17
2019-05-20T09:29:41.558Z,98957.34
2019-05-20T09:32:09.172Z,98953.54
2019-05-20T09:34:38.012Z,98957.95
2019-05-20T09:37:05.470Z,98960.63
2019-05-20T09:39:41.131Z,98969.52
2019-05-20T09:42:08.947Z,98963.12
2019-05-20T09:44:36.496Z,98961.28
2019-05-20T09:47:07.224Z,98961.62
2019-05-20T09:49:39.750Z,98960.98
2019-05-20T09:52:19.290Z,98976.95
2019-05-20T09:54:50.790Z,98976.95
2019-05-20T09:57:27.557Z,98963.72
2019-05-20T09:59:59.961Z,98977.32
2019-05-20T10:02:38.301Z,98977.32
2019-05-20T10:05:07.311Z,98987.21
2019-05-20T10:07:35.420Z,98980.65
2019-05-20T10:10:09.717Z,98969.17
2019-05-20T10:12:46.672Z,98969.17
2019-05-20T10:15:11.391Z,98977.00
2019-05-20T10:17:45.927Z,98976.78
2019-05-20T10:20:20.475Z,98976.11
2019-05-20T10:22:51.086Z,98975.93
2019-05-20T10:25:18.779Z,98972.75
2019-05-20T10:27:51.979Z,98976.26
2019-05-20T10:30:19.863Z,98974.69
2019-05-20T10:32:49.925Z,98969.61
2019-05-20T10:35:17.477Z,98972.59
2019-05-20T10:37:45.242Z,98973.21
2019-05-20T10:40:12.825Z,98979.84
2019-05-20T10:42:40.376Z,98979.84
2019-05-20T10:45:08.221Z,98976.62
2019-05-20T10:47:35.699Z,98976.31
2019-05-20T10:50:03.263Z,98974.11
2019-05-20T10:52:31.077Z,98976.62
2019-05-20T10:54:58.687Z,98975.93
2019-05-20T10:57:26.224Z,98977.95
2019-05-20T10:59:54.009Z,98977.95
2019-05-20T11:02:21.498Z,98985.45
2019-05-20T11:04:49.088Z,98987.59
2019-05-20T11:07:19.757Z,98977.03
2019-05-20T11:09:49.580Z,98977.03
2019-05-20T11:12:17.129Z,98986.11
2019-05-20T11:14:48.787Z,98986.11
2019-05-20T11:17:18.469Z,98991.23
2019-05-20T11:19:49.388Z,98990.33
2019-05-20T11:22:21.484Z,98993.41
2019-05-20T11:24:49.107Z,98988.98
2019-05-20T11:27:19.152Z,98984.27
2019-05-20T11:29:46.890Z,98990.28
2019-05-20T11:32:14.495Z,98994.08
2019-05-20T11:34:43.919Z,98993.82
2019-05-20T11:37:14.627Z,98993.82
2019-05-20T11:39:42.212Z,98993.11
2019-05-20T11:42:09.801Z,98990.38
2019-05-20T11:44:37.550Z,98994.87
2019-05-20T11:47:05.084Z,98996.41
2019-05-20T11:49:32.688Z,98996.41
2019-05-20T11:52:00.341Z,98997.25
2019-05-20T11:54:30.579Z,98989.28
2019-05-20T11:57:17.239Z,98986.42
2019-05-20T12:02:31.455Z,98974.58
2019-05-20T12:04:58.994Z,98976.51
2019-05-20T12:07:26.612Z,98972.20
2019-05-20T12:09:54.449Z,98969.38
2019-05-20T12:12:22.094Z,98969.38
2019-05-20T12:14:49.670Z,98977.83
2019-05-20T12:17:36.090Z,98978.23
2019-05-20T12:20:04.700Z,98978.69
2019-05-20T12:25:40.101Z,98978.69
2019-05-20T12:28:07.715Z,98975.59
2019-05-20T12:30:35.706Z,98986.63
2019-05-20T12:33:18.362Z,98986.63
2019-05-20T12:38:27.897Z,98976.75
2019-05-20T12:40:58.244Z,98980.61
2019-05-20T12:43:25.813Z,98980.61
2019-05-20T12:45:54.730Z,98975.72
2019-05-20T12:48:22.748Z,98972.31
2019-05-20T12:50:50.277Z,98972.31
2019-05-20T12:53:20.535Z,98960.77
2019-05-20T12:55:48.156Z,98962.24
2019-05-20T13:01:24.997Z,98964.83
2019-05-20T13:03:52.593Z,98960.60
2019-05-20T13:06:20.770Z,98961.95
2019-05-20T13:08:48.320Z,98957.81
2019-05-20T13:14:21.326Z,98958.64
2019-05-20T13:16:51.232Z,98954.01
2019-05-20T13:19:37.758Z,98956.08
2019-05-20T13:22:05.905Z,98957.17
2019-05-20T13:24:33.788Z,98954.09
2019-05-20T13:27:01.493Z,98960.06
2019-05-20T13:29:29.425Z,98958.80
2019-05-20T13:32:15.799Z,98956.69
2019-05-20T13:34:43.538Z,98956.69
2019-05-20T13:37:30.299Z,98952.42
2019-05-20T13:40:02.523Z,98958.48
2019-05-20T13:42:27.759Z,98955.78
2019-05-20T13:44:55.382Z,98960.02
2019-05-20T13:47:22.974Z,98961.23
2019-05-20T13:50:09.358Z,98962.77
2019-05-20T13:52:37.036Z,98965.99
2019-05-20T13:55:04.611Z,98965.99
2019-05-20T13:57:32.492Z,98964.66
2019-05-20T14:00:00.056Z,98960.05
2019-05-20T14:05:02.226Z,98953.12
2019-05-20T14:07:32.310Z,98947.42
2019-05-20T14:09:59.923Z,98947.42
2019-05-20T14:15:11.832Z,98951.16
2019-05-20T14:17:58.340Z,98954.56
2019-05-20T14:20:25.876Z,98953.00
2019-05-20T14:23:07.255Z,98955.02
2019-05-20T14:25:23.231Z,98964.00
2019-05-20T14:27:50.827Z,98961.98
2019-05-20T14:30:37.189Z,98956.73
2019-05-20T14:33:08.989Z,98956.73
2019-05-20T14:35:36.522Z,98962.38
2019-05-20T14:38:23.734Z,98962.20
2019-05-20T14:40:51.379Z,98964.63
2019-05-20T14:43:19.303Z,98965.80
2019-05-20T14:46:10.161Z,98964.17
2019-05-20T14:48:38.063Z,98959.55
2019-05-20T14:51:05.608Z,98961.30
2019-05-20T14:53:33.315Z,98956.55
2019-05-20T14:56:19.724Z,98960.53
2019-05-20T14:58:47.294Z,98953.53
2019-05-20T15:01:15.747Z,98956.14
2019-05-20T15:04:04.981Z,98951.78
2019-05-20T15:06:39.767Z,98948.72
2019-05-20T15:09:41.606Z,98944.67
2019-05-20T15:11:55.485Z,98944.67
2019-05-20T15:14:23.117Z,98944.02
2019-05-20T15:16:51.176Z,98947.73
2019-05-20T15:19:21.064Z,98944.09
2019-05-20T15:21:48.633Z,98949.86
2019-05-20T15:24:35.040Z,98937.28
2019-05-20T15:27:05.284Z,98944.60
2019-05-20T15:29:32.885Z,98936.97
2019-05-20T15:32:19.197Z,98938.40
2019-05-20T15:37:33.422Z,98930.77
2019-05-20T15:40:01.005Z,98934.48
2019-05-20T15:42:28.541Z,98933.77
2019-05-20T15:44:56.319Z,98936.73
2019-05-20T15:47:42.647Z,98936.73
2019-05-20T15:50:29.048Z,98938.72
2019-05-20T15:56:03.715Z,98936.55
2019-05-20T15:58:31.283Z,98934.41
2019-05-20T16:00:59.505Z,98936.20
2019-05-20T16:03:45.836Z,98937.49
2019-05-20T16:06:32.292Z,98940.63
2019-05-20T16:09:18.690Z,98944.61
2019-05-20T16:12:05.072Z,98945.05
2019-05-20T16:14:32.692Z,98942.15
2019-05-20T16:17:19.081Z,98952.47
2019-05-20T16:19:48.691Z,98963.48
2019-05-20T16:22:16.536Z,98964.09
2019-05-20T16:25:02.969Z,98964.47
2019-05-20T16:27:49.317Z,98964.47
2019-05-20T16:30:19.619Z,98953.57
2019-05-20T16:33:05.963Z,98957.61
2019-05-20T16:38:42.424Z,98959.70
2019-05-20T16:40:59.268Z,98963.94
2019-05-20T16:43:38.870Z,98959.94
2019-05-20T16:45:56.409Z,98957.78
2019-05-20T16:48:40.775Z,98957.95
2019-05-20T16:50:58.747Z,98957.81
2019-05-20T16:53:26.435Z,98957.81
2019-05-20T16:55:53.970Z,98960.50
2019-05-20T16:58:33.719Z,98958.52
2019-05-20T17:00:51.390Z,98958.52
2019-05-20T17:06:10.953Z,98955.51
2019-05-20T17:08:57.385Z,98954.48
2019-05-20T17:16:53.793Z,98963.11
2019-05-20T17:22:09.742Z,98964.31
2019-05-20T17:24:37.263Z,98971.04
2019-05-20T17:27:23.595Z,98980.80
2019-05-20T17:29:51.297Z,98980.80
2019-05-20T17:35:28.425Z,98991.23
2019-05-20T17:37:55.983Z,99006.88
2019-05-20T17:40:23.570Z,99006.88
2019-05-20T17:42:54.912Z,99002.00
2019-05-20T17:45:23.314Z,99003.66
2019-05-20T17:47:52.625Z,99005.71
2019-05-20T17:50:20.562Z,99009.25
2019-05-20T17:52:48.104Z,99009.25
2019-05-20T17:55:15.842Z,99003.34
2019-05-20T17:57:43.727Z,99003.34
2019-05-20T18:00:13.455Z,99008.40
2019-05-20T18:02:41.784Z,99004.89
2019-05-20T18:05:09.663Z,99003.20
2019-05-20T18:07:42.778Z,99007.59
2019-05-20T18:10:12.537Z,99010.27
2019-05-20T18:12:46.198Z,99004.37
2019-05-20T18:15:13.791Z,99004.89
2019-05-20T18:17:41.638Z,99002.20
2019-05-20T18:20:09.119Z,99011.47
2019-05-20T18:22:40.201Z,99011.47
2019-05-20T18:25:08.065Z,99008.46
2019-05-20T18:27:35.630Z,99007.61
2019-05-20T18:30:08.899Z,99013.16
2019-05-20T18:32:38.522Z,99009.34
2019-05-20T18:35:06.140Z,99009.34
2019-05-20T18:37:36.482Z,99011.17
2019-05-20T18:40:14.083Z,99011.17
2019-05-20T18:42:36.509Z,99012.91
2019-05-20T18:45:04.135Z,99012.91
2019-05-20T18:47:34.942Z,99005.86
2019-05-20T18:50:02.605Z,99017.11
2019-05-20T18:52:30.390Z,99017.11
2019-05-20T18:54:58.264Z,99011.91
2019-05-20T18:57:28.215Z,99011.27
2019-05-20T18:59:58.636Z,99010.41
2019-05-20T19:02:26.438Z,99010.41
2019-05-20T19:04:53.977Z,99004.39
2019-05-20T19:07:23.485Z,99004.39
2019-05-20T19:09:57.314Z,99006.12
2019-05-20T19:12:24.949Z,99002.58
2019-05-20T19:14:52.476Z,99002.25
2019-05-20T19:17:23.281Z,99002.25
2019-05-20T19:19:54.662Z,98999.73
2019-05-20T19:22:25.352Z,99002.78
2019-05-20T19:24:53.150Z,99006.81
2019-05-20T19:27:20.612Z,99009.50
2019-05-20T19:29:48.199Z,99007.31
2019-05-20T19:32:34.604Z,99007.31
2019-05-20T19:35:04.229Z,99003.98
2019-05-20T19:37:50.568Z,99009.67
2019-05-20T19:40:48.678Z,99014.41
2019-05-20T19:43:24.935Z,99014.41
2019-05-20T19:45:52.647Z,99012.39
2019-05-20T19:48:39.048Z,99015.45
2019-05-20T19:51:08.661Z,99015.45
2019-05-20T19:54:07.189Z,99012.44
2019-05-20T19:56:24.309Z,99016.16
2019-05-20T19:59:10.679Z,99026.91
2019-05-20T20:01:38.261Z,99020.68
2019-05-20T20:04:31.874Z,99018.16
2019-05-20T20:09:51.298Z,99033.97
2019-05-20T20:12:18.820Z,99031.66
2019-05-20T20:15:17.345Z,99031.66
2019-05-20T20:20:41.509Z,99027.80
2019-05-20T20:23:09.130Z,99029.66
2019-05-20T20:25:55.567Z,99027.97
2019-05-20T20:31:52.561Z,99036.55
2019-05-20T20:33:59.219Z,99026.50
2019-05-20T20:36:45.621Z,99026.50
2019-05-20T20:39:13.279Z,99037.42
2019-05-20T20:41:59.965Z,99036.75
2019-05-20T20:44:27.493Z,99036.75
2019-05-20T20:47:14.137Z,99043.11
2019-05-20T21:11:31.404Z,99043.22
2019-05-20T21:13:59.279Z,99049.30
2019-05-20T21:16:26.787Z,99049.30
2019-05-20T21:19:13.423Z,99051.13
2019-05-20T21:21:41.034Z,99049.63
2019-05-20T21:24:27.462Z,99049.63
2019-05-20T21:26:55.023Z,99049.16
2019-05-20T21:29:43.116Z,99046.67
2019-05-20T21:32:10.697Z,99046.67
2019-05-20T21:37:25.175Z,99050.02
2019-05-20T21:39:42.175Z,99049.20
2019-05-20T21:42:09.833Z,99053.72
2019-05-20T21:44:56.145Z,99051.03
2019-05-20T21:47:23.750Z,99056.94
2019-05-20T21:50:22.511Z,99053.08
2019-05-20T21:52:39.600Z,99052.75
2019-05-20T21:55:07.493Z,99054.26
2019-05-20T21:57:39.289Z,99058.45
2019-05-20T22:00:06.865Z,99048.94
2019-05-20T22:02:34.786Z,99053.63
2019-05-20T22:05:05.175Z,99054.80
2019-05-20T22:10:38.003Z,99058.55
2019-05-20T22:13:05.631Z,99058.55
2019-05-20T22:18:57.970Z,99059.91
2019-05-20T22:24:16.032Z,99056.57
2019-05-20T22:26:43.550Z,99063.78
2019-05-20T22:29:29.964Z,99063.97
2019-05-20T22:31:59.538Z,99071.70
2019-05-20T22:34:53.659Z,99072.20
2019-05-20T22:37:15.529Z,99072.20
2019-05-20T22:39:43.421Z,99070.85
2019-05-20T22:42:11.031Z,99077.08
2019-05-20T22:44:38.792Z,99072.36
2019-05-20T22:47:06.887Z,99068.66
2019-05-20T22:49:36.081Z,99075.25
2019-05-20T22:52:03.933Z,99073.91
2019-05-20T22:54:31.602Z,99072.20
2019-05-20T22:57:18.011Z,99061.02
2019-05-20T23:00:04.285Z,99060.66
2019-05-20T23:02:31.818Z,99060.66
2019-05-20T23:05:18.206Z,99060.85
2019-05-20T23:07:46.223Z,99053.12
2019-05-20T23:10:13.890Z,99053.12
2019-05-20T23:12:41.741Z,99052.64
2019-05-20T23:15:09.299Z,99053.34
2019-05-20T23:17:55.736Z,99050.00
2019-05-20T23:20:23.385Z,99050.00
2019-05-20T23:22:51.283Z,99051.83
2019-05-20T23:25:18.900Z,99043.30
2019-05-20T23:27:46.810Z,99034.10
2019-05-20T23:30:14.330Z,99038.62
2019-05-20T23:32:44.932Z,99039.63
2019-05-20T23:35:12.472Z,99037.80
2019-05-20T23:37:40.075Z,99037.80
2019-05-20T23:40:07.899Z,99044.68
2019-05-20T23:42:35.472Z,99040.48
2019-05-20T23:45:03.440Z,99046.88
2019-05-20T23:47:30.987Z,99044.39
2019-05-20T23:49:58.892Z,99045.38
2019-05-20T23:52:26.563Z,99050.41
2019-05-20T23:54:54.167Z,99048.91
2019-05-20T23:57:50.042Z,99050.97
